createdAt,value
2018-12-29T00:08:41.086Z,25.73
2018-12-29T00:13:59.551Z,26.87
2018-12-29T00:19:18.315Z,26.13
2018-12-29T00:24:36.792Z,29.42
2018-12-29T00:29:55.257Z,29.20
2018-12-29T00:35:13.936Z,26.93
2018-12-29T00:40:32.467Z,30.57
2018-12-29T00:45:50.939Z,30.60
2018-12-29T00:51:09.623Z,30.50
2018-12-29T00:56:28.157Z,30.73
2018-12-29T01:01:46.691Z,29.53
2018-12-29T01:12:36.619Z,32.30
2018-12-29T01:23:25.609Z,31.40
2018-12-29T01:28:44.089Z,29.40
2018-12-29T01:34:02.582Z,31.50
2018-12-29T01:39:21.067Z,31.03
2018-12-29T01:44:39.531Z,31.90
2018-12-29T01:49:58.012Z,33.13
2018-12-29T01:55:16.495Z,31.95
2018-12-29T02:00:35.044Z,32.07
2018-12-29T02:05:53.556Z,33.38
2018-12-29T02:11:12.039Z,33.10
2018-12-29T02:16:30.517Z,31.63
2018-12-29T02:21:49.064Z,32.93
2018-12-29T02:27:07.605Z,33.47
2018-12-29T02:37:58.537Z,36.43
2018-12-29T02:43:17.022Z,32.37
2018-12-29T02:48:35.487Z,31.53
2018-12-29T02:53:53.968Z,32.37
2018-12-29T02:59:12.858Z,32.07
2018-12-29T03:04:31.380Z,32.67
2018-12-29T03:09:49.858Z,32.73
2018-12-29T03:15:08.446Z,33.83
2018-12-29T03:20:26.917Z,32.37
2018-12-29T03:25:45.394Z,31.87
2018-12-29T03:31:03.936Z,31.73
2018-12-29T03:36:22.416Z,32.03
2018-12-29T03:41:40.955Z,30.63
2018-12-29T03:46:59.420Z,33.90
2018-12-29T03:52:18.034Z,34.07
2018-12-29T03:57:36.515Z,31.70
2018-12-29T04:02:54.985Z,33.67
2018-12-29T04:08:13.455Z,31.93
2018-12-29T04:13:32.389Z,30.37
2018-12-29T04:18:50.843Z,30.53
2018-12-29T04:24:09.661Z,33.97
2018-12-29T04:29:47.464Z,33.20
2018-12-29T04:35:06.080Z,31.63
2018-12-29T04:40:24.910Z,30.03
2018-12-29T04:51:15.837Z,30.27
2018-12-29T04:56:34.297Z,29.70
2018-12-29T05:01:52.764Z,30.67
2018-12-29T05:07:11.239Z,29.73
2018-12-29T05:12:29.858Z,27.50
2018-12-29T05:17:48.322Z,28.43
2018-12-29T05:23:06.806Z,28.80
2018-12-29T05:28:25.303Z,26.90
2018-12-29T05:33:43.767Z,26.20
2018-12-29T05:39:02.270Z,25.20
2018-12-29T05:44:20.733Z,23.83
2018-12-29T05:49:39.315Z,23.57
2018-12-29T06:00:30.231Z,23.10
2018-12-29T06:05:48.708Z,23.20
2018-12-29T06:11:07.172Z,23.40
2018-12-29T06:16:27.892Z,22.77
2018-12-29T06:21:45.900Z,22.57
2018-12-29T06:27:04.834Z,23.97
2018-12-29T06:32:23.297Z,24.33
2018-12-29T06:37:41.845Z,20.63
2018-12-29T06:43:00.315Z,24.27
2018-12-29T06:48:18.831Z,24.47
2018-12-29T06:53:37.618Z,24.73
2018-12-29T06:58:56.213Z,24.53
2018-12-29T07:04:14.627Z,24.97
2018-12-29T07:09:33.112Z,27.47
2018-12-29T07:14:51.742Z,26.57
2018-12-29T07:20:10.226Z,26.52
2018-12-29T07:25:28.703Z,26.87
2018-12-29T07:30:47.457Z,29.00
2018-12-29T07:36:05.927Z,27.40
2018-12-29T07:41:24.463Z,30.73
2018-12-29T07:46:49.399Z,28.73
2018-12-29T07:52:03.280Z,28.70
2018-12-29T07:57:21.755Z,28.03
2018-12-29T08:02:40.303Z,27.77
2018-12-29T08:07:58.844Z,28.73
2018-12-29T08:13:17.309Z,30.23
2018-12-29T08:18:35.777Z,28.70
2018-12-29T08:23:54.327Z,29.50
2018-12-29T08:29:12.816Z,28.43
2018-12-29T08:34:31.407Z,31.13
2018-12-29T08:39:49.955Z,30.88
2018-12-29T08:50:38.948Z,31.07
2018-12-29T08:55:57.579Z,32.20
2018-12-29T09:01:16.087Z,31.83
2018-12-29T09:12:07.142Z,32.37
2018-12-29T09:17:25.611Z,32.67
2018-12-29T09:22:44.449Z,33.10
2018-12-29T09:28:02.936Z,32.40
2018-12-29T09:33:21.477Z,32.33
2018-12-29T09:38:39.987Z,32.00
2018-12-29T09:43:58.498Z,33.47
2018-12-29T09:54:47.417Z,35.47
2018-12-29T10:00:46.219Z,36.53
2018-12-29T10:06:04.713Z,37.00
2018-12-29T10:11:23.255Z,35.40
2018-12-29T10:16:41.731Z,37.20
2018-12-29T10:22:00.277Z,36.57
2018-12-29T10:27:18.933Z,37.03
2018-12-29T10:32:37.405Z,37.47
2018-12-29T10:37:55.883Z,34.57
2018-12-29T10:43:14.395Z,35.37
2018-12-29T10:48:32.875Z,33.23
2018-12-29T10:53:51.565Z,34.87
2018-12-29T10:59:10.062Z,35.33
2018-12-29T11:04:28.548Z,36.90
2018-12-29T11:09:47.025Z,36.57
2018-12-29T11:15:05.871Z,36.60
2018-12-29T11:20:24.530Z,37.33
2018-12-29T11:31:15.589Z,32.57
2018-12-29T11:42:04.582Z,34.50
2018-12-29T11:47:23.359Z,32.27
2018-12-29T11:52:41.850Z,34.57
2018-12-29T11:58:00.391Z,32.30
2018-12-29T12:03:38.586Z,32.53
2018-12-29T12:14:29.514Z,30.83
2018-12-29T12:19:47.996Z,28.60
2018-12-29T12:25:06.606Z,29.03
2018-12-29T12:30:25.222Z,29.10
2018-12-29T12:35:59.567Z,26.20
2018-12-29T12:41:04.331Z,25.70
2018-12-29T12:57:43.233Z,26.23
2018-12-29T13:08:35.794Z,26.90
2018-12-29T13:13:54.283Z,22.77
2018-12-29T13:19:12.747Z,24.83
2018-12-29T13:24:31.222Z,24.03
2018-12-29T13:35:39.546Z,20.47
2018-12-29T13:40:58.054Z,20.40
2018-12-29T13:46:16.598Z,19.70
2018-12-29T13:51:35.140Z,19.83
2018-12-29T14:02:26.208Z,21.20
2018-12-29T14:07:58.587Z,22.20
2018-12-29T14:13:17.261Z,20.60
2018-12-29T14:18:35.811Z,21.93
2018-12-29T14:23:54.287Z,21.23
2018-12-29T14:34:43.213Z,23.07
2018-12-29T14:40:01.694Z,22.60
2018-12-29T14:45:21.878Z,22.33
2018-12-29T14:50:59.755Z,21.93
2018-12-29T14:56:18.241Z,21.80
2018-12-29T15:01:36.691Z,22.07
2018-12-29T15:06:55.298Z,20.23
2018-12-29T15:12:14.086Z,21.03
2018-12-29T15:17:32.573Z,20.80
2018-12-29T15:22:52.777Z,19.20
2018-12-29T15:28:11.334Z,20.67
2018-12-29T15:34:11.531Z,20.10
2018-12-29T15:39:32.048Z,20.68
2018-12-29T15:44:50.519Z,20.00
2018-12-29T15:55:41.709Z,17.67
2018-12-29T16:01:01.913Z,17.33
2018-12-29T16:06:20.381Z,15.93
2018-12-29T16:17:11.539Z,13.73
2018-12-29T16:22:29.992Z,11.87
2018-12-29T16:27:48.480Z,12.40
2018-12-29T16:33:07.359Z,10.60
2018-12-29T16:38:45.213Z,10.50
2018-12-29T16:44:03.912Z,11.07
2018-12-29T16:49:43.449Z,10.87
2018-12-29T16:55:01.992Z,11.83
2018-12-29T17:00:20.976Z,13.13
2018-12-29T17:05:52.136Z,12.00
2018-12-29T17:16:32.473Z,16.33
2018-12-29T17:21:51.211Z,16.67
2018-12-29T17:27:09.728Z,18.03
2018-12-29T17:32:28.270Z,19.50
2018-12-29T17:37:46.779Z,19.10
2018-12-29T17:48:37.818Z,19.37
2018-12-29T17:53:57.105Z,21.60
2018-12-29T17:59:17.507Z,21.37
2018-12-29T18:10:41.875Z,21.90
2018-12-29T18:15:47.911Z,22.33
2018-12-29T18:21:06.444Z,22.20
2018-12-29T18:31:57.172Z,24.37
2018-12-29T18:37:15.648Z,25.50
2018-12-29T18:48:04.614Z,28.83
2018-12-29T18:53:23.347Z,28.27
2018-12-29T18:58:41.872Z,29.37
2018-12-29T19:04:00.487Z,32.70
2018-12-29T19:09:18.970Z,32.43
2018-12-29T19:14:37.513Z,33.83
2018-12-29T19:19:56.045Z,34.43
2018-12-29T19:25:14.528Z,36.40
2018-12-29T19:36:05.735Z,36.90
2018-12-29T19:41:24.211Z,36.67
2018-12-29T19:46:44.509Z,35.30
2018-12-29T19:52:04.854Z,39.97
2018-12-29T19:57:23.442Z,34.57
2018-12-29T20:02:41.994Z,35.30
2018-12-29T20:08:02.350Z,35.30
2018-12-29T20:13:21.072Z,33.70
2018-12-29T20:18:39.561Z,33.73
2018-12-29T20:23:58.093Z,35.40
2018-12-29T20:29:16.573Z,31.80
2018-12-29T20:40:45.587Z,29.57
2018-12-29T20:46:04.377Z,24.63
2018-12-29T20:51:23.173Z,22.23
2018-12-29T20:56:43.245Z,20.50
2018-12-29T21:02:01.778Z,18.57
2018-12-29T21:12:50.690Z,16.07
2018-12-29T21:18:09.257Z,15.33
2018-12-29T21:23:27.720Z,14.70
2018-12-29T21:40:45.655Z,6.37
2018-12-29T21:46:04.436Z,4.97
2018-12-29T21:51:23.548Z,3.23
2018-12-29T21:56:42.124Z,3.53
2018-12-29T22:02:00.660Z,2.72
2018-12-29T22:12:51.652Z,2.10
2018-12-29T22:18:10.196Z,2.70
2018-12-29T22:23:28.664Z,2.77
2018-12-29T22:28:47.207Z,4.37
2018-12-29T22:34:05.667Z,2.37
2018-12-29T22:39:24.138Z,3.73
2018-12-29T22:44:42.686Z,3.37
2018-12-29T22:50:01.182Z,3.97
2018-12-29T22:55:19.719Z,3.47
2018-12-29T23:11:40.853Z,3.90
2018-12-29T23:16:59.396Z,3.63
2018-12-29T23:22:17.866Z,3.30
2018-12-29T23:27:36.337Z,2.93
2018-12-29T23:32:54.800Z,2.93
2018-12-29T23:43:45.356Z,3.30
2018-12-29T23:49:03.923Z,3.40
2018-12-29T23:59:52.898Z,3.05
